Time;durP1;ratioP1;P1;durP2;ratioP2;P2;SDS_P1;SDS_P2;PMS_P1;PMS_P2;Temp;Humidity;BMP_temperature;BMP_pressure;BME280_temperature;BME280_humidity;BME280_pressure;Samples;Min_cycle;Max_cycle;Signal;HPM_P1;HPM_P2
2023/03/19 00:00:32;;;;;;;6.80;6.10;;;;;;;10.73;88.90;100512.36;106318;1261;61102;-67
2023/03/19 00:02:59;;;;;;;7.90;6.20;;;;;;;10.69;89.07;100515.69;106650;1258;61320;-69
2023/03/19 00:05:26;;;;;;;7.20;6.10;;;;;;;10.68;89.31;100513.21;106585;1261;61271;-67
2023/03/19 00:07:52;;;;;;;8.90;7.00;;;;;;;10.66;89.29;100514.70;106580;1260;73446;-67
2023/03/19 00:10:20;;;;;;;8.20;7.30;;;;;;;10.65;89.34;100516.79;106641;1258;61206;-67
2023/03/19 00:12:46;;;;;;;9.20;7.30;;;;;;;10.63;89.57;100516.33;106529;1262;71514;-69
2023/03/19 00:15:14;;;;;;;8.70;7.00;;;;;;;10.60;89.63;100515.34;106374;1258;61122;-67
2023/03/19 00:17:41;;;;;;;9.70;8.30;;;;;;;10.58;89.71;100518.17;106489;1258;61843;-67
2023/03/19 00:20:11;;;;;;;12.40;9.50;;;;;;;10.58;89.83;100519.50;106501;1258;73211;-68
2023/03/19 00:22:38;;;;;;;13.30;10.70;;;;;;;10.57;89.98;100515.14;106425;1258;70356;-68
2023/03/19 00:25:07;;;;;;;18.10;14.10;;;;;;;10.57;89.98;100520.27;106548;1260;72177;-69
2023/03/19 00:27:35;;;;;;;16.10;11.70;;;;;;;10.57;89.93;100524.35;106595;1258;61383;-67
2023/03/19 00:30:03;;;;;;;15.30;11.50;;;;;;;10.57;89.95;100528.13;106565;1258;61203;-67
2023/03/19 00:32:32;;;;;;;14.70;11.10;;;;;;;10.56;90.10;100522.17;106581;1260;74706;-69
2023/03/19 00:34:59;;;;;;;12.00;10.10;;;;;;;10.56;90.08;100524.13;106609;1258;71206;-68
2023/03/19 00:37:26;;;;;;;12.00;9.70;;;;;;;10.54;89.97;100524.22;106192;1258;72859;-68
2023/03/19 00:39:52;;;;;;;9.30;8.00;;;;;;;10.49;89.77;100522.50;106560;1258;62831;-68
2023/03/19 00:42:19;;;;;;;9.30;7.80;;;;;;;10.42;90.10;100521.65;106985;1258;60588;-67
2023/03/19 00:44:45;;;;;;;9.70;8.00;;;;;;;10.37;90.22;100521.56;106414;1258;61214;-67
2023/03/19 00:47:12;;;;;;;9.50;8.10;;;;;;;10.31;90.52;100521.52;106637;1258;61428;-69
2023/03/19 00:49:39;;;;;;;11.40;8.20;;;;;;;10.26;90.78;100517.88;106489;1264;72651;-69
2023/03/19 00:52:05;;;;;;;11.30;8.70;;;;;;;10.22;90.87;100518.17;106740;1258;60487;-67
2023/03/19 00:54:33;;;;;;;11.60;9.00;;;;;;;10.15;91.04;100516.55;106464;1260;61392;-68
2023/03/19 00:57:00;;;;;;;11.10;9.30;;;;;;;10.09;91.06;100517.15;106512;1260;73273;-70
2023/03/19 00:59:26;;;;;;;11.60;9.60;;;;;;;10.02;91.36;100517.81;107001;1258;69924;-67
2023/03/19 01:01:53;;;;;;;12.60;9.80;;;;;;;9.94;91.47;100510.40;106556;1258;72106;-70
2023/03/19 01:04:20;;;;;;;14.00;10.50;;;;;;;9.86;91.60;100511.44;106402;1264;61233;-69
2023/03/19 01:06:47;;;;;;;13.50;10.50;;;;;;;9.76;91.84;100508.48;106533;1260;61664;-70
2023/03/19 01:09:14;;;;;;;13.50;10.50;;;;;;;9.65;92.19;100509.27;106263;1260;73154;-69
2023/03/19 01:11:41;;;;;;;14.60;11.40;;;;;;;9.53;92.92;100513.57;106575;1257;71308;-67
2023/03/19 01:14:08;;;;;;;15.60;12.10;;;;;;;9.44;93.50;100511.66;106513;1258;71169;-67
2023/03/19 01:16:35;;;;;;;14.90;12.40;;;;;;;9.36;93.57;100513.04;106296;1259;61860;-68
2023/03/19 01:19:02;;;;;;;17.60;11.90;;;;;;;9.29;94.03;100513.27;106314;1259;61469;-71
2023/03/19 01:21:31;;;;;;;15.00;12.40;;;;;;;9.24;94.48;100511.73;106604;1257;73314;-69
2023/03/19 01:23:58;;;;;;;15.20;13.00;;;;;;;9.18;94.59;100510.23;106625;1261;70360;-68
2023/03/19 01:26:25;;;;;;;15.80;13.10;;;;;;;9.11;94.93;100509.29;106572;1258;71966;-67
2023/03/19 01:28:51;;;;;;;17.90;14.50;;;;;;;9.03;95.30;100507.33;106501;1258;61513;-69
2023/03/19 01:31:18;;;;;;;17.20;14.30;;;;;;;8.98;95.73;100510.91;106802;1260;61761;-69
2023/03/19 01:33:45;;;;;;;17.60;14.80;;;;;;;8.94;96.05;100506.71;106702;1261;74750;-67
2023/03/19 01:36:12;;;;;;;18.50;15.30;;;;;;;8.91;96.18;100507.38;107196;1258;71215;-68
2023/03/19 01:38:39;;;;;;;18.80;14.90;;;;;;;8.87;96.16;100516.10;106517;1258;71732;-68
2023/03/19 01:41:06;;;;;;;20.70;15.80;;;;;;;8.83;96.25;100518.36;106260;1260;62277;-69
2023/03/19 01:43:33;;;;;;;18.60;15.60;;;;;;;8.78;96.29;100516.92;107539;1258;61531;-68
2023/03/19 01:46:21;;;;;;;19.60;15.20;;;;;;;8.75;96.44;100515.38;108632;1261;75401;-68
2023/03/19 01:48:51;;;;;;;21.00;15.60;;;;;;;8.69;96.39;100516.55;108499;1260;71866;-68
2023/03/19 01:51:23;;;;;;;19.70;16.60;;;;;;;8.66;97.08;100510.56;107322;1260;71278;-69
2023/03/19 01:53:54;;;;;;;21.00;15.90;;;;;;;8.63;97.56;100506.92;107030;1259;61234;-68
2023/03/19 01:56:26;;;;;;;20.70;15.70;;;;;;;8.62;97.71;100504.98;106215;1260;60397;-69
2023/03/19 01:58:57;;;;;;;22.20;17.00;;;;;;;8.59;97.79;100506.00;106354;1261;73455;-68
2023/03/19 02:01:27;;;;;;;21.80;17.60;;;;;;;8.56;97.64;100504.16;106441;1260;69277;-67
2023/03/19 02:03:54;;;;;;;25.00;18.40;;;;;;;8.55;97.97;100505.29;106491;1258;70638;-68
2023/03/19 02:06:22;;;;;;;22.60;18.40;;;;;;;8.55;98.16;100501.91;106343;1258;61498;-70
2023/03/19 02:08:51;;;;;;;22.20;18.00;;;;;;;8.54;98.36;100504.13;106364;1261;61141;-73
2023/03/19 02:11:19;;;;;;;24.10;18.30;;;;;;;8.52;98.51;100504.38;106549;1261;73465;-69
2023/03/19 02:13:47;;;;;;;26.50;19.70;;;;;;;8.51;99.16;100503.64;106694;1261;70006;-68
2023/03/19 02:16:14;;;;;;;23.70;19.60;;;;;;;8.51;99.59;100503.63;106531;1258;72940;-70
2023/03/19 02:18:42;;;;;;;25.30;20.60;;;;;;;8.52;99.75;100503.04;106398;1261;61349;-71
2023/03/19 02:21:12;;;;;;;27.90;19.90;;;;;;;8.54;99.96;100504.60;106503;1261;61273;-69
2023/03/19 02:24:07;;;;;;;24.60;18.90;;;;;;;8.55;99.91;100506.84;106601;1258;74851;-69
2023/03/19 02:26:35;;;;;;;25.80;19.60;;;;;;;8.58;99.91;100503.48;106327;1261;71060;-68
2023/03/19 02:29:03;;;;;;;26.30;19.20;;;;;;;8.59;99.95;100506.15;106539;1258;71626;-67
2023/03/19 02:31:30;;;;;;;24.20;18.50;;;;;;;8.60;99.99;100504.52;106728;1260;61144;-67
2023/03/19 02:34:01;;;;;;;25.30;18.30;;;;;;;8.60;99.97;100506.40;106313;1258;61252;-71
2023/03/19 02:36:40;;;;;;;23.60;18.50;;;;;;;8.59;100.00;100504.23;106197;1261;74617;-68
2023/03/19 02:39:21;;;;;;;21.60;17.70;;;;;;;8.57;100.00;100502.29;106375;1258;71207;-68
2023/03/19 02:41:50;;;;;;;21.40;18.50;;;;;;;8.56;100.00;100500.33;106388;1259;71656;-68
2023/03/19 02:44:18;;;;;;;25.20;18.20;;;;;;;8.56;100.00;100497.09;106399;1263;62678;-68
2023/03/19 02:46:45;;;;;;;23.90;17.90;;;;;;;8.57;100.00;100497.22;106958;1260;60481;-69
2023/03/19 02:49:12;;;;;;;24.00;17.50;;;;;;;8.57;100.00;100498.41;106622;1260;74988;-69
2023/03/19 02:51:40;;;;;;;21.60;17.60;;;;;;;8.58;100.00;100504.86;106333;1258;71147;-68
2023/03/19 02:54:07;;;;;;;21.50;17.60;;;;;;;8.57;100.00;100505.12;106231;1258;72485;-69
2023/03/19 02:56:34;;;;;;;22.60;17.40;;;;;;;8.55;100.00;100504.99;106666;1258;61346;-69
2023/03/19 02:59:01;;;;;;;23.30;18.60;;;;;;;8.55;100.00;100507.05;106656;1260;61253;-68
2023/03/19 03:01:28;;;;;;;21.90;17.50;;;;;;;8.54;100.00;100503.28;106428;1259;73470;-70
2023/03/19 03:03:55;;;;;;;24.50;17.80;;;;;;;8.53;100.00;100505.31;106712;1261;71280;-69
2023/03/19 03:06:22;;;;;;;22.80;17.50;;;;;;;8.52;100.00;100508.63;106647;1258;71151;-68
2023/03/19 03:08:48;;;;;;;19.80;15.90;;;;;;;8.52;100.00;100512.72;106503;1258;61241;-70
2023/03/19 03:11:15;;;;;;;20.70;16.80;;;;;;;8.50;100.00;100511.67;106604;1260;61370;-68
2023/03/19 03:13:42;;;;;;;21.40;16.10;;;;;;;8.49;100.00;100509.73;106382;1258;74703;-67
2023/03/19 03:16:09;;;;;;;20.80;17.00;;;;;;;8.47;100.00;100510.98;106147;1264;69185;-67
2023/03/19 03:18:36;;;;;;;20.60;16.40;;;;;;;8.48;100.00;100512.43;106388;1259;71536;-67
2023/03/19 03:21:03;;;;;;;20.30;15.90;;;;;;;8.46;100.00;100511.21;106689;1264;61273;-68
2023/03/19 03:23:29;;;;;;;19.20;15.60;;;;;;;8.46;99.90;100507.44;106484;1263;61338;-70
2023/03/19 03:25:55;;;;;;;21.10;15.40;;;;;;;8.43;99.97;100514.02;106388;1261;61837;-71
2023/03/19 03:28:23;;;;;;;20.30;15.70;;;;;;;8.40;100.00;100516.11;106581;1258;61348;-67
2023/03/19 03:30:50;;;;;;;20.30;15.00;;;;;;;8.37;100.00;100517.21;106776;1258;71500;-67
2023/03/19 03:33:17;;;;;;;16.90;14.70;;;;;;;8.36;100.00;100517.58;106548;1258;61355;-68
2023/03/19 03:35:44;;;;;;;16.90;14.80;;;;;;;8.34;100.00;100519.20;106375;1260;61657;-69
2023/03/19 03:38:11;;;;;;;19.80;15.20;;;;;;;8.32;100.00;100518.91;106908;1261;73507;-68
2023/03/19 03:40:38;;;;;;;18.40;14.20;;;;;;;8.30;100.00;100515.58;106678;1261;69382;-67
2023/03/19 03:43:04;;;;;;;15.80;14.00;;;;;;;8.27;100.00;100516.23;106373;1263;72559;-68
2023/03/19 03:45:32;;;;;;;21.00;14.90;;;;;;;8.25;100.00;100519.48;106632;1258;61243;-69
2023/03/19 03:47:58;;;;;;;21.20;15.20;;;;;;;8.23;100.00;100519.09;106327;1258;61359;-69
2023/03/19 03:50:25;;;;;;;18.30;15.00;;;;;;;8.22;100.00;100518.73;106657;1258;61347;-67
2023/03/19 03:52:51;;;;;;;17.90;14.40;;;;;;;8.20;100.00;100518.89;106599;1258;61260;-68
2023/03/19 03:55:18;;;;;;;19.70;14.40;;;;;;;8.19;100.00;100521.52;106026;1267;61267;-68
2023/03/19 03:57:45;;;;;;;17.20;14.30;;;;;;;8.19;100.00;100523.67;106476;1258;61387;-69
2023/03/19 04:00:12;;;;;;;16.30;14.00;;;;;;;8.19;100.00;100519.59;106494;1258;61327;-71
2023/03/19 04:02:39;;;;;;;19.70;14.90;;;;;;;8.21;100.00;100522.59;106413;1258;74469;-68
2023/03/19 04:05:06;;;;;;;18.50;13.70;;;;;;;8.22;100.00;100524.77;106481;1258;70812;-68
2023/03/19 04:07:32;;;;;;;16.40;13.40;;;;;;;8.22;100.00;100525.08;106520;1260;71716;-70
2023/03/19 04:09:59;;;;;;;18.30;13.30;;;;;;;8.22;100.00;100525.51;106110;1261;61706;-68
2023/03/19 04:12:26;;;;;;;16.10;13.30;;;;;;;8.20;100.00;100524.98;106580;1262;61212;-68
2023/03/19 04:14:52;;;;;;;17.10;13.10;;;;;;;8.20;100.00;100529.20;107178;1260;61170;-69
2023/03/19 04:17:19;;;;;;;18.30;12.60;;;;;;;8.19;100.00;100528.70;106687;1260;61361;-68
2023/03/19 04:19:45;;;;;;;16.10;12.50;;;;;;;8.18;100.00;100525.66;106432;1258;61244;-70
2023/03/19 04:22:12;;;;;;;16.20;12.30;;;;;;;8.17;100.00;100524.21;106414;1260;61425;-71
2023/03/19 04:24:40;;;;;;;15.30;12.10;;;;;;;8.14;100.00;100522.13;106591;1258;61352;-68
2023/03/19 04:27:07;;;;;;;18.60;12.70;;;;;;;8.13;100.00;100520.93;106222;1260;73168;-68
2023/03/19 04:29:33;;;;;;;14.90;12.50;;;;;;;8.10;100.00;100519.94;106276;1261;71193;-72
2023/03/19 04:32:00;;;;;;;14.60;12.50;;;;;;;8.09;100.00;100519.02;106620;1261;61374;-68
2023/03/19 04:34:27;;;;;;;16.10;12.20;;;;;;;8.08;100.00;100519.97;106921;1258;60895;-68
2023/03/19 04:36:55;;;;;;;15.20;11.90;;;;;;;8.09;100.00;100518.88;106493;1258;61832;-67
2023/03/19 04:39:22;;;;;;;16.40;12.10;;;;;;;8.09;100.00;100517.23;106233;1261;74425;-68
2023/03/19 04:41:49;;;;;;;15.90;12.60;;;;;;;8.10;100.00;100517.30;106394;1258;61777;-69
2023/03/19 04:44:15;;;;;;;13.10;10.70;;;;;;;8.10;100.00;100515.41;106387;1261;72856;-67
2023/03/19 04:46:44;;;;;;;13.50;11.20;;;;;;;8.10;100.00;100516.80;106834;1260;61344;-68
2023/03/19 04:49:11;;;;;;;14.60;10.50;;;;;;;8.11;100.00;100517.00;106648;1264;61204;-68
2023/03/19 04:51:38;;;;;;;14.20;10.90;;;;;;;8.13;100.00;100517.33;106207;1258;74943;-70
2023/03/19 04:54:05;;;;;;;16.10;11.20;;;;;;;8.15;100.00;100516.12;106210;1264;70348;-68
2023/03/19 04:56:31;;;;;;;15.50;10.20;;;;;;;8.17;100.00;100516.09;106295;1261;73539;-67
2023/03/19 04:58:58;;;;;;;13.40;10.60;;;;;;;8.20;100.00;100515.95;106811;1260;60227;-68
2023/03/19 05:01:25;;;;;;;13.80;10.80;;;;;;;8.22;100.00;100517.73;106597;1260;61300;-67
2023/03/19 05:03:51;;;;;;;11.90;10.60;;;;;;;8.23;100.00;100519.01;106323;1258;72822;-70
2023/03/19 05:06:18;;;;;;;13.60;10.50;;;;;;;8.24;100.00;100519.55;106554;1259;71399;-68
2023/03/19 05:08:45;;;;;;;13.80;10.50;;;;;;;8.26;100.00;100521.34;106568;1263;72682;-66
2023/03/19 05:11:12;;;;;;;14.50;11.40;;;;;;;8.27;99.99;100517.15;106477;1258;61252;-71
2023/03/19 05:13:39;;;;;;;12.80;10.70;;;;;;;8.27;99.69;100520.82;106473;1260;61125;-71
2023/03/19 05:16:05;;;;;;;13.20;10.60;;;;;;;8.28;99.71;100521.67;106294;1261;61410;-68
2023/03/19 05:18:33;;;;;;;12.20;10.10;;;;;;;8.27;99.70;100528.59;106536;1258;70264;-68
2023/03/19 05:20:59;;;;;;;15.50;10.00;;;;;;;8.23;99.05;100528.80;106667;1262;70724;-68
2023/03/19 05:23:26;;;;;;;13.90;10.70;;;;;;;8.24;99.96;100526.92;106989;1258;61137;-66
2023/03/19 05:25:53;;;;;;;13.00;10.80;;;;;;;8.27;99.94;100524.34;106320;1258;61295;-69
2023/03/19 05:28:20;;;;;;;13.10;11.60;;;;;;;8.29;99.93;100529.56;106510;1264;74743;-68
2023/03/19 05:30:46;;;;;;;13.90;10.70;;;;;;;8.32;99.88;100531.16;106461;1259;70107;-67
2023/03/19 05:33:13;;;;;;;11.60;9.90;;;;;;;8.36;99.97;100526.75;106719;1259;73221;-67
2023/03/19 05:35:40;;;;;;;12.60;10.10;;;;;;;8.40;99.83;100527.77;106267;1258;61355;-67
2023/03/19 05:38:07;;;;;;;11.70;9.30;;;;;;;8.42;99.83;100527.70;106427;1260;61135;-68
2023/03/19 05:40:34;;;;;;;12.00;9.70;;;;;;;8.43;99.61;100528.30;106484;1258;73178;-69
2023/03/19 05:43:02;;;;;;;11.00;9.30;;;;;;;8.44;99.23;100527.14;106584;1261;70217;-67
2023/03/19 05:45:29;;;;;;;11.80;9.70;;;;;;;8.43;98.99;100527.63;106523;1258;71462;-68
2023/03/19 05:47:56;;;;;;;11.60;9.60;;;;;;;8.44;99.33;100533.64;106344;1258;61150;-67
2023/03/19 05:50:22;;;;;;;12.50;9.80;;;;;;;8.46;99.16;100538.37;106640;1259;61498;-68
2023/03/19 05:52:49;;;;;;;13.00;9.60;;;;;;;8.49;99.62;100541.61;106394;1264;61369;-69
2023/03/19 05:55:16;;;;;;;13.10;9.80;;;;;;;8.50;99.65;100542.30;106624;1258;61186;-68
2023/03/19 05:57:42;;;;;;;14.00;9.40;;;;;;;8.53;99.84;100542.02;106661;1258;73000;-68
2023/03/19 06:00:10;;;;;;;12.60;9.70;;;;;;;8.54;99.79;100546.80;106367;1260;61243;-68
2023/03/19 06:02:36;;;;;;;11.10;9.00;;;;;;;8.57;100.00;100548.65;106613;1259;61354;-68
2023/03/19 06:05:04;;;;;;;11.50;9.00;;;;;;;8.62;100.00;100548.52;106536;1258;72687;-69
2023/03/19 06:07:31;;;;;;;10.10;7.80;;;;;;;8.68;100.00;100550.66;106552;1260;70481;-68
2023/03/19 06:09:57;;;;;;;10.00;8.10;;;;;;;8.77;100.00;100549.52;106490;1262;72443;-68
2023/03/19 06:12:24;;;;;;;9.00;7.10;;;;;;;8.87;100.00;100546.27;106376;1258;61159;-68
2023/03/19 06:14:50;;;;;;;9.70;6.90;;;;;;;8.97;100.00;100550.83;106586;1263;61563;-69
2023/03/19 06:17:17;;;;;;;11.30;7.30;;;;;;;9.09;100.00;100548.83;106573;1258;61262;-68
2023/03/19 06:19:44;;;;;;;8.80;6.60;;;;;;;9.23;100.00;100546.23;106502;1260;61241;-67
2023/03/19 06:22:11;;;;;;;10.20;6.60;;;;;;;9.34;100.00;100547.47;106553;1258;71290;-69
2023/03/19 06:24:38;;;;;;;9.50;6.40;;;;;;;9.46;100.00;100546.17;106589;1263;61294;-68
2023/03/19 06:27:05;;;;;;;8.90;6.20;;;;;;;9.59;99.96;100546.72;106328;1260;59320;-69
2023/03/19 06:29:31;;;;;;;8.30;6.20;;;;;;;9.70;99.71;100549.08;106420;1266;73205;-68
2023/03/19 06:31:58;;;;;;;8.10;6.00;;;;;;;9.83;99.11;100547.86;106963;1258;61244;-68
2023/03/19 06:34:25;;;;;;;8.70;5.80;;;;;;;9.93;98.60;100550.42;106644;1258;70683;-69
2023/03/19 06:36:52;;;;;;;8.80;6.30;;;;;;;10.04;98.38;100556.91;106430;1259;62857;-68
2023/03/19 06:39:20;;;;;;;7.90;5.60;;;;;;;10.18;98.30;100563.42;106789;1258;61360;-68
2023/03/19 06:41:46;;;;;;;8.40;5.90;;;;;;;10.30;97.68;100570.83;106501;1259;75887;-67
2023/03/19 06:44:13;;;;;;;8.80;5.60;;;;;;;10.38;97.08;100571.52;106326;1263;70069;-69
2023/03/19 06:46:40;;;;;;;9.00;5.70;;;;;;;10.47;96.69;100579.50;106548;1261;71253;-69
2023/03/19 06:49:07;;;;;;;7.40;5.20;;;;;;;10.52;96.08;100582.77;106444;1263;61361;-68
2023/03/19 06:51:33;;;;;;;7.30;5.40;;;;;;;10.55;95.62;100583.62;106634;1260;62345;-68
2023/03/19 06:54:00;;;;;;;8.60;5.90;;;;;;;10.59;95.33;100587.44;107304;1258;60089;-68
2023/03/19 06:56:28;;;;;;;9.40;6.40;;;;;;;10.63;95.15;100586.67;105868;1262;69756;-70
2023/03/19 06:58:55;;;;;;;8.30;5.90;;;;;;;10.68;95.04;100588.02;106921;1258;72685;-69
2023/03/19 07:01:21;;;;;;;9.20;5.60;;;;;;;10.75;95.06;100589.16;106276;1258;61241;-69
2023/03/19 07:03:48;;;;;;;6.80;5.30;;;;;;;10.83;94.86;100592.52;106415;1258;61364;-69
2023/03/19 07:06:15;;;;;;;7.50;5.40;;;;;;;10.90;94.42;100595.71;106019;1263;72246;-69
2023/03/19 07:08:45;;;;;;;7.10;5.20;;;;;;;10.93;93.63;100599.67;106512;1262;71177;-71
2023/03/19 07:11:13;;;;;;;7.20;5.40;;;;;;;10.91;93.61;100604.59;106303;1263;72570;-68
2023/03/19 07:13:39;;;;;;;7.90;5.60;;;;;;;10.89;93.57;100607.36;106115;1263;61268;-68
2023/03/19 07:16:07;;;;;;;7.40;5.70;;;;;;;10.87;93.51;100609.90;106121;1258;61355;-72
2023/03/19 07:18:34;;;;;;;7.00;5.00;;;;;;;10.85;93.58;100611.46;106166;1259;73552;-72
2023/03/19 07:21:01;;;;;;;6.50;5.30;;;;;;;10.86;93.72;100608.35;106434;1263;70749;-68
2023/03/19 07:23:28;;;;;;;8.60;5.30;;;;;;;10.86;93.63;100607.36;106251;1263;72423;-68
2023/03/19 07:25:54;;;;;;;6.70;4.90;;;;;;;10.86;93.69;100608.58;106241;1259;61166;-68
2023/03/19 07:28:21;;;;;;;7.80;4.70;;;;;;;10.86;93.73;100610.49;106805;1261;59415;-67
2023/03/19 07:30:51;;;;;;;6.50;4.80;;;;;;;10.88;93.74;100616.70;108186;1261;74754;-69
2023/03/19 07:33:18;;;;;;;8.10;4.80;;;;;;;10.90;93.64;100623.84;106612;1260;69900;-69
2023/03/19 07:35:45;;;;;;;7.40;4.70;;;;;;;10.92;93.51;100622.73;106777;1261;73163;-68
2023/03/19 07:38:13;;;;;;;7.20;4.90;;;;;;;10.93;93.55;100621.23;106968;1261;61115;-67
2023/03/19 07:40:40;;;;;;;6.30;4.90;;;;;;;10.92;93.39;100621.77;106638;1261;61393;-67
2023/03/19 07:43:16;;;;;;;6.20;4.70;;;;;;;10.92;93.21;100630.19;106539;1263;74523;-68
2023/03/19 07:45:43;;;;;;;8.00;5.00;;;;;;;10.92;93.16;100632.14;106874;1258;70067;-69
2023/03/19 07:48:11;;;;;;;9.00;5.00;;;;;;;10.94;93.50;100627.28;106126;1258;73687;-70
2023/03/19 07:50:38;;;;;;;8.80;4.70;;;;;;;10.96;93.35;100628.36;106676;1259;61338;-68
2023/03/19 07:53:04;;;;;;;7.90;4.90;;;;;;;10.99;93.00;100635.70;106505;1260;61883;-72
2023/03/19 07:55:31;;;;;;;6.80;4.50;;;;;;;11.04;93.04;100638.69;106394;1263;61718;-69
2023/03/19 07:57:57;;;;;;;8.20;4.90;;;;;;;11.10;92.75;100636.90;106558;1260;69885;-68
2023/03/19 08:00:24;;;;;;;7.80;4.80;;;;;;;11.14;92.43;100639.42;106403;1260;61362;-68
2023/03/19 08:02:51;;;;;;;5.60;4.00;;;;;;;11.19;92.14;100641.30;106436;1264;61442;-67
2023/03/19 08:05:17;;;;;;;6.40;3.90;;;;;;;11.26;91.96;100640.67;106324;1263;61137;-68
2023/03/19 08:07:44;;;;;;;7.10;4.10;;;;;;;11.33;91.34;100641.10;106451;1264;61786;-66
2023/03/19 08:10:11;;;;;;;6.60;3.70;;;;;;;11.38;91.15;100644.41;106442;1262;71159;-67
2023/03/19 08:12:39;;;;;;;5.10;3.30;;;;;;;11.45;91.16;100642.91;106559;1261;70162;-68
2023/03/19 08:15:09;;;;;;;5.20;3.20;;;;;;;11.52;90.29;100643.34;106561;1261;61780;-68
2023/03/19 08:17:39;;;;;;;6.40;3.10;;;;;;;11.59;89.86;100644.17;106525;1263;61156;-68
2023/03/19 08:20:08;;;;;;;5.10;2.70;;;;;;;11.66;89.23;100644.25;106811;1262;74586;-67
2023/03/19 08:22:36;;;;;;;6.00;2.80;;;;;;;11.74;89.23;100639.39;106432;1261;71389;-66
2023/03/19 08:25:04;;;;;;;6.00;2.80;;;;;;;11.86;89.17;100639.84;106590;1263;70852;-69
2023/03/19 08:27:30;;;;;;;4.20;2.80;;;;;;;11.93;88.87;100639.19;106303;1262;62077;-68
2023/03/19 08:29:57;;;;;;;6.90;3.30;;;;;;;11.99;88.62;100642.49;106537;1263;61360;-67
2023/03/19 08:32:24;;;;;;;6.00;3.20;;;;;;;12.04;88.40;100641.86;106558;1261;73773;-69
2023/03/19 08:34:51;;;;;;;6.00;2.80;;;;;;;12.08;88.07;100639.78;106735;1258;71032;-74
2023/03/19 08:37:18;;;;;;;5.90;2.80;;;;;;;12.10;88.06;100637.23;106366;1264;71155;-74
2023/03/19 08:39:44;;;;;;;6.90;4.70;;;;;;;12.17;87.90;100642.02;108356;1259;60478;-74
2023/03/19 08:42:11;;;;;;;6.20;3.30;;;;;;;12.28;88.11;100637.85;108350;1261;59203;-74
2023/03/19 08:44:38;;;;;;;4.90;2.80;;;;;;;12.40;87.81;100641.24;107138;1261;76151;-72
2023/03/19 08:47:05;;;;;;;5.40;3.30;;;;;;;12.46;87.14;100638.52;107282;1263;70181;-74
2023/03/19 08:49:32;;;;;;;4.80;3.10;;;;;;;12.51;87.01;100634.56;106852;1261;71564;-74
2023/03/19 08:51:59;;;;;;;4.80;3.20;;;;;;;12.53;87.03;100634.64;106390;1264;61740;-73
2023/03/19 08:54:26;;;;;;;5.10;2.90;;;;;;;12.55;87.13;100637.94;106473;1259;61270;-73
2023/03/19 08:56:52;;;;;;;9.00;3.00;;;;;;;12.62;87.32;100634.11;107110;1258;73134;-72
2023/03/19 08:59:19;;;;;;;4.60;2.90;;;;;;;12.66;87.22;100631.32;106535;1261;69794;-73
2023/03/19 09:01:50;;;;;;;4.70;2.60;;;;;;;12.72;87.22;100640.64;106676;1257;71685;-73
2023/03/19 09:04:18;;;;;;;6.60;2.60;;;;;;;12.81;87.33;100642.52;106382;1258;61358;-74
2023/03/19 09:06:45;;;;;;;6.60;2.80;;;;;;;12.91;87.25;100648.39;107102;1263;61142;-73
2023/03/19 09:09:12;;;;;;;5.10;2.50;;;;;;;13.02;86.89;100650.03;106299;1266;73628;-73
2023/03/19 09:11:39;;;;;;;4.60;2.70;;;;;;;13.19;86.77;100651.60;106861;1259;70118;-74
2023/03/19 09:14:06;;;;;;;5.10;2.50;;;;;;;13.37;86.50;100649.97;106917;1259;72499;-73
2023/03/19 09:16:33;;;;;;;4.00;2.20;;;;;;;13.50;85.22;100652.43;106775;1263;61154;-72
2023/03/19 09:19:01;;;;;;;3.70;2.10;;;;;;;13.61;84.89;100651.89;106718;1258;59124;-72
2023/03/19 09:21:28;;;;;;;5.10;2.60;;;;;;;13.75;84.59;100648.39;106611;1264;74711;-73
2023/03/19 09:23:55;;;;;;;6.10;2.10;;;;;;;13.85;83.57;100648.45;108293;1259;71150;-74
2023/03/19 09:26:22;;;;;;;3.90;2.40;;;;;;;13.95;82.77;100648.48;108665;1260;71557;-73
2023/03/19 09:28:50;;;;;;;3.70;2.00;;;;;;;14.08;83.04;100647.31;108591;1261;60785;-74
2023/03/19 09:31:17;;;;;;;3.80;2.20;;;;;;;14.27;83.39;100649.60;108691;1261;58953;-73
2023/03/19 09:33:43;;;;;;;3.50;1.90;;;;;;;14.48;81.53;100650.41;108652;1258;74391;-74
2023/03/19 09:36:10;;;;;;;4.90;2.10;;;;;;;14.70;80.81;100652.23;108660;1260;59372;-74
2023/03/19 09:38:38;;;;;;;3.90;1.80;;;;;;;14.88;79.23;100653.95;107970;1263;73924;-73
2023/03/19 09:41:26;;;;;;;3.80;1.90;;;;;;;15.03;78.78;100653.55;106648;1260;62147;-73
2023/03/19 09:44:24;;;;;;;4.70;1.50;;;;;;;15.24;78.01;100656.38;106664;1260;61274;-73
2023/03/19 09:46:57;;;;;;;3.20;1.30;;;;;;;15.35;76.37;100650.08;106666;1261;75786;-73
2023/03/19 09:49:31;;;;;;;2.50;1.10;;;;;;;15.42;75.07;100649.73;107068;1260;70037;-74
2023/03/19 09:52:40;;;;;;;3.00;1.40;;;;;;;15.58;74.72;100647.52;106575;1259;73156;-73
2023/03/19 09:55:32;;;;;;;2.70;1.50;;;;;;;15.77;73.59;100651.09;106418;1260;61678;-73
2023/03/19 09:58:01;;;;;;;2.60;1.50;;;;;;;15.84;73.27;100656.09;106486;1261;61355;-74
2023/03/19 10:00:38;;;;;;;3.30;1.50;;;;;;;15.98;72.90;100659.46;106419;1264;74767;-74
2023/03/19 10:03:38;;;;;;;2.40;1.30;;;;;;;16.14;72.31;100662.73;106752;1261;70917;-75
2023/03/19 10:06:32;;;;;;;3.30;1.30;;;;;;;16.26;70.58;100663.21;107424;1259;72357;-75
2023/03/19 10:09:17;;;;;;;3.20;1.30;;;;;;;16.33;69.60;100664.38;107198;1260;61360;-74
2023/03/19 10:11:55;;;;;;;2.60;1.30;;;;;;;16.47;69.97;100663.04;106670;1261;61275;-73
2023/03/19 10:14:59;;;;;;;2.60;1.40;;;;;;;16.74;69.81;100661.93;106577;1260;73161;-74
2023/03/19 10:17:45;;;;;;;2.00;1.10;;;;;;;16.99;69.17;100657.60;107302;1259;69001;-75
2023/03/19 10:20:43;;;;;;;2.00;1.10;;;;;;;17.20;67.93;100659.70;106597;1262;71251;-75
2023/03/19 10:23:41;;;;;;;3.00;1.20;;;;;;;17.34;65.04;100655.21;106434;1258;62213;-74
2023/03/19 10:26:14;;;;;;;1.90;0.80;;;;;;;17.43;61.68;100656.40;107402;1260;61388;-74
2023/03/19 10:28:43;;;;;;;2.30;0.80;;;;;;;17.53;61.47;100652.64;106995;1258;74577;-75
2023/03/19 10:31:24;;;;;;;3.50;0.80;;;;;;;17.51;59.14;100654.59;106648;1261;71190;-75
2023/03/19 10:34:04;;;;;;;2.20;1.00;;;;;;;17.59;60.01;100652.65;106763;1261;72298;-75
2023/03/19 10:36:34;;;;;;;2.90;0.90;;;;;;;17.60;59.21;100653.64;107284;1259;61179;-75
2023/03/19 10:39:04;;;;;;;2.90;0.80;;;;;;;17.66;59.59;100651.83;107768;1258;59198;-75
2023/03/19 10:41:41;;;;;;;2.20;0.90;;;;;;;17.69;58.53;100654.11;108647;1261;73591;-73
2023/03/19 10:44:27;;;;;;;4.10;1.10;;;;;;;17.73;59.39;100655.38;108714;1260;71195;-73
2023/03/19 10:47:07;;;;;;;2.30;0.90;;;;;;;17.74;58.43;100658.11;106689;1261;72532;-72
2023/03/19 10:49:35;;;;;;;1.90;0.80;;;;;;;17.70;58.52;100656.20;106655;1260;61367;-74
2023/03/19 10:52:02;;;;;;;2.10;1.00;;;;;;;17.68;58.23;100654.86;106834;1259;61270;-74
2023/03/19 10:54:30;;;;;;;2.80;1.00;;;;;;;17.71;58.72;100657.18;106658;1261;74806;-75
2023/03/19 10:56:58;;;;;;;2.00;0.90;;;;;;;17.73;58.76;100660.42;106442;1260;71260;-75
2023/03/19 10:59:30;;;;;;;2.10;1.10;;;;;;;17.78;59.27;100662.77;106689;1259;72066;-73
2023/03/19 11:02:01;;;;;;;3.00;1.20;;;;;;;17.86;58.82;100662.75;107033;1257;61338;-73
2023/03/19 11:04:28;;;;;;;3.40;0.90;;;;;;;17.89;57.76;100668.92;106535;1263;61300;-74
2023/03/19 11:07:05;;;;;;;2.50;1.00;;;;;;;17.83;57.64;100665.46;106666;1260;73184;-74
2023/03/19 11:09:33;;;;;;;2.60;1.20;;;;;;;17.85;57.68;100664.58;106771;1260;71229;-74
2023/03/19 11:12:21;;;;;;;3.60;1.20;;;;;;;17.88;58.02;100664.05;106783;1260;72853;-74
2023/03/19 11:14:51;;;;;;;3.80;1.20;;;;;;;17.98;58.92;100667.33;107880;1261;61243;-74
2023/03/19 11:17:38;;;;;;;3.10;1.40;;;;;;;18.06;58.78;100664.04;106749;1258;61253;-74
2023/03/19 11:20:14;;;;;;;2.00;1.00;;;;;;;18.17;58.56;100666.60;106888;1261;74798;-74